Time;durP1;ratioP1;P1;durP2;ratioP2;P2;SDS_P1;SDS_P2;PMS_P1;PMS_P2;Temp;Humidity;BMP_temperature;BMP_pressure;BME280_temperature;BME280_humidity;BME280_pressure;Samples;Min_cycle;Max_cycle;Signal;HPM_P1;HPM_P2
2023/08/28 00:01:41;;;;;;;3.60;1.60;;;;;;;19.49;65.69;97078.19;5137630;27;20342;-76
2023/08/28 00:04:06;;;;;;;1.90;1.80;;;;;;;19.47;65.48;97074.91;5140495;27;20187;-76
2023/08/28 00:06:32;;;;;;;2.53;1.87;;;;;;;19.46;65.20;97067.19;5126769;27;20185;-75
2023/08/28 00:08:57;;;;;;;7.20;2.03;;;;;;;19.43;65.32;97062.28;5127972;27;20762;-76
2023/08/28 00:11:23;;;;;;;2.93;2.07;;;;;;;19.39;65.28;97056.59;5124686;27;20262;-74
2023/08/28 00:13:48;;;;;;;6.13;1.60;;;;;;;19.39;65.86;97058.41;5132169;27;20703;-75
2023/08/28 00:16:14;;;;;;;9.30;1.90;;;;;;;19.34;66.01;97048.41;5130602;27;20678;-75
2023/08/28 00:18:39;;;;;;;5.30;2.07;;;;;;;19.32;65.92;97061.09;5136119;27;20280;-75
2023/08/28 00:21:05;;;;;;;8.43;1.87;;;;;;;19.32;65.69;97063.75;5129972;27;20176;-74
2023/08/28 00:23:32;;;;;;;5.20;1.60;;;;;;;19.25;66.05;97066.44;5132060;27;20176;-76
2023/08/28 00:25:59;;;;;;;3.50;1.87;;;;;;;19.24;65.69;97064.81;5131581;27;20617;-75
2023/08/28 00:28:25;;;;;;;8.10;1.70;;;;;;;19.22;65.83;97044.81;5100380;28;20446;-75
2023/08/28 00:30:50;;;;;;;2.80;1.70;;;;;;;19.24;65.79;97032.13;5136850;27;20786;-76
2023/08/28 00:33:15;;;;;;;4.07;1.70;;;;;;;19.25;65.51;97041.72;5137797;27;20753;-74
2023/08/28 00:35:42;;;;;;;2.30;1.70;;;;;;;19.21;65.59;97045.81;5142245;27;20644;-75
2023/08/28 00:38:09;;;;;;;5.83;1.87;;;;;;;19.19;65.26;97046.03;5148192;27;20208;-74
2023/08/28 00:40:39;;;;;;;2.53;1.70;;;;;;;19.20;65.06;97053.00;5125369;27;20418;-74
2023/08/28 00:43:04;;;;;;;2.90;1.43;;;;;;;19.19;65.14;97067.28;5132366;27;20418;-74
2023/08/28 00:45:30;;;;;;;1.67;1.53;;;;;;;19.17;65.11;97080.78;5116840;27;20777;-74
2023/08/28 00:47:56;;;;;;;5.30;1.70;;;;;;;19.17;65.37;97085.28;5120086;27;20670;-76
2023/08/28 00:50:21;;;;;;;5.77;2.10;;;;;;;19.17;65.17;97085.28;5131662;27;20727;-76
2023/08/28 00:52:47;;;;;;;2.33;1.60;;;;;;;19.17;64.78;97074.66;5131503;27;20586;-76
2023/08/28 00:55:13;;;;;;;2.50;1.90;;;;;;;19.16;64.82;97065.06;5138527;27;20578;-74
2023/08/28 00:57:38;;;;;;;2.17;1.37;;;;;;;19.15;64.84;97060.75;5120799;27;20248;-75
2023/08/28 01:00:05;;;;;;;6.93;1.70;;;;;;;19.13;64.92;97061.00;5123996;27;20188;-75
2023/08/28 01:02:31;;;;;;;8.10;1.77;;;;;;;19.12;65.10;97061.19;5104417;27;20710;-74
2023/08/28 01:04:58;;;;;;;2.63;1.70;;;;;;;19.11;65.54;97057.72;5136156;27;20422;-74
2023/08/28 01:07:26;;;;;;;6.00;1.90;;;;;;;19.12;65.70;97051.38;5126450;27;20201;-74
2023/08/28 01:09:51;;;;;;;5.73;1.87;;;;;;;19.14;65.58;97053.81;5125685;27;20467;-75
2023/08/28 01:12:30;;;;;;;4.57;1.70;;;;;;;19.11;65.76;97068.34;5112627;27;20800;-75
2023/08/28 01:15:18;;;;;;;5.00;1.37;;;;;;;19.08;65.46;97068.75;5112225;27;20176;-74
2023/08/28 01:17:46;;;;;;;3.53;1.80;;;;;;;19.07;65.77;97072.44;5123609;27;20505;-75
2023/08/28 01:20:13;;;;;;;8.60;1.90;;;;;;;19.08;65.96;97074.06;5137367;27;20487;-75
2023/08/28 01:22:56;;;;;;;6.77;2.40;;;;;;;19.09;65.73;97080.22;5119110;27;20415;-75
2023/08/28 01:25:22;;;;;;;10.20;2.17;;;;;;;19.05;65.71;97092.28;5138661;27;20413;-74
2023/08/28 01:27:48;;;;;;;5.37;1.83;;;;;;;19.03;65.83;97085.31;5112115;27;20441;-75
2023/08/28 01:30:15;;;;;;;6.17;1.77;;;;;;;19.00;65.93;97090.25;5140507;27;20789;-74
2023/08/28 01:32:42;;;;;;;4.60;1.70;;;;;;;18.98;66.14;97097.59;5137037;27;20740;-74
2023/08/28 01:35:12;;;;;;;2.30;1.80;;;;;;;18.94;66.31;97089.25;5134158;27;20421;-74
2023/08/28 01:37:57;;;;;;;8.00;2.40;;;;;;;18.98;66.49;97087.78;5145749;27;21012;-74
2023/08/28 01:40:26;;;;;;;1.80;1.70;;;;;;;19.00;66.01;97090.25;5123299;27;20469;-74
2023/08/28 01:42:52;;;;;;;6.53;2.07;;;;;;;18.98;66.22;97093.09;5119195;27;20982;-75
2023/08/28 01:45:17;;;;;;;3.03;1.70;;;;;;;18.98;66.37;97090.44;5107660;27;20507;-73
2023/08/28 01:47:43;;;;;;;6.77;1.90;;;;;;;18.97;66.65;97080.03;5104742;27;20253;-73
2023/08/28 01:50:08;;;;;;;6.10;2.00;;;;;;;18.96;66.58;97078.41;5129520;27;20191;-75
2023/08/28 01:52:34;;;;;;;4.30;1.70;;;;;;;18.94;66.51;97088.41;5142551;27;20556;-75
2023/08/28 01:55:00;;;;;;;5.27;1.70;;;;;;;18.94;66.76;97083.94;5142723;27;20858;-75
2023/08/28 01:57:25;;;;;;;10.23;2.00;;;;;;;18.93;66.79;97079.59;5120012;27;20230;-75
2023/08/28 01:59:50;;;;;;;2.80;1.80;;;;;;;18.92;66.74;97075.31;5129867;27;20621;-76
2023/08/28 02:02:16;;;;;;;3.40;1.73;;;;;;;18.92;66.62;97072.66;5129865;27;20272;-73
2023/08/28 02:04:41;;;;;;;3.10;1.70;;;;;;;18.92;66.52;97056.75;5130288;27;20266;-74
2023/08/28 02:07:07;;;;;;;2.70;1.83;;;;;;;18.91;66.69;97055.09;5138282;27;20271;-75
2023/08/28 02:09:32;;;;;;;5.40;1.90;;;;;;;18.93;66.49;97054.88;5111349;27;20208;-73
2023/08/28 02:11:58;;;;;;;3.77;1.80;;;;;;;18.90;66.64;97050.00;5130096;27;20633;-73
2023/08/28 02:14:23;;;;;;;3.30;1.73;;;;;;;18.89;66.21;97046.53;5138032;27;20559;-75
2023/08/28 02:16:49;;;;;;;3.77;1.67;;;;;;;18.85;66.51;97045.31;5130420;27;20665;-75
2023/08/28 02:19:14;;;;;;;3.20;2.10;;;;;;;18.82;66.49;97035.13;5129585;27;20207;-75
2023/08/28 02:21:40;;;;;;;6.30;1.70;;;;;;;18.79;66.60;97019.63;5121539;27;20200;-75
2023/08/28 02:24:05;;;;;;;3.20;1.80;;;;;;;18.76;66.33;97018.19;5129796;27;20292;-76
2023/08/28 02:26:32;;;;;;;3.93;1.83;;;;;;;18.76;66.58;97015.53;5121221;27;20184;-75
2023/08/28 02:28:57;;;;;;;5.23;2.13;;;;;;;18.75;66.51;97005.13;5136681;27;20211;-75
2023/08/28 02:31:22;;;;;;;3.07;1.70;;;;;;;18.76;66.29;96999.63;5128448;27;20971;-75
2023/08/28 02:33:48;;;;;;;4.50;1.80;;;;;;;18.78;66.56;97012.66;5128945;27;20216;-75
2023/08/28 02:36:13;;;;;;;3.53;1.87;;;;;;;18.77;66.75;97006.56;5133838;27;20191;-74
2023/08/28 02:38:39;;;;;;;1.87;1.60;;;;;;;18.73;66.46;97002.69;5134255;27;20290;-76
2023/08/28 02:41:05;;;;;;;3.63;1.93;;;;;;;18.74;66.49;97001.66;5107248;28;20204;-76
2023/08/28 02:43:31;;;;;;;2.13;1.70;;;;;;;18.73;66.60;97000.84;5119220;27;20255;-75
2023/08/28 02:45:57;;;;;;;1.70;1.60;;;;;;;18.70;66.56;97001.28;5137756;27;20425;-74
2023/08/28 02:48:22;;;;;;;2.57;1.47;;;;;;;18.66;66.86;96994.75;5126143;27;20207;-73
2023/08/28 02:50:50;;;;;;;8.50;1.93;;;;;;;18.67;66.77;96990.22;5142533;27;20646;-76
2023/08/28 02:53:16;;;;;;;5.40;1.80;;;;;;;18.70;66.57;96988.00;5134729;27;20267;-75
2023/08/28 02:55:42;;;;;;;4.03;1.87;;;;;;;18.73;66.53;96994.72;5126277;27;20512;-74
2023/08/28 02:58:08;;;;;;;1.83;1.60;;;;;;;18.68;66.46;96992.69;5133552;27;20280;-74
2023/08/28 03:00:37;;;;;;;3.80;2.03;;;;;;;18.69;66.35;96990.84;5125108;27;20569;-76
2023/08/28 03:03:03;;;;;;;1.60;1.50;;;;;;;18.70;66.49;96995.13;5134594;27;20421;-75
2023/08/28 03:05:29;;;;;;;4.07;1.60;;;;;;;18.72;66.16;97003.72;5113390;27;20422;-75
2023/08/28 03:07:54;;;;;;;3.00;1.70;;;;;;;18.72;66.30;96990.44;5154184;27;20497;-75
2023/08/28 03:10:20;;;;;;;5.67;1.53;;;;;;;18.69;66.19;96985.53;5125362;27;20265;-76
2023/08/28 03:12:45;;;;;;;5.53;1.97;;;;;;;18.68;66.58;96982.09;5118423;27;20189;-75
2023/08/28 03:15:11;;;;;;;2.30;2.10;;;;;;;18.67;66.37;96984.94;5121572;27;20260;-74
2023/08/28 03:17:36;;;;;;;6.30;2.10;;;;;;;18.61;66.42;96975.16;5143074;27;20203;-76
2023/08/28 03:20:02;;;;;;;5.90;1.93;;;;;;;18.65;66.75;96966.56;5129560;27;20216;-75
2023/08/28 03:22:27;;;;;;;3.00;1.90;;;;;;;18.68;66.67;96965.31;5132813;27;20665;-74
2023/08/28 03:24:53;;;;;;;9.07;2.33;;;;;;;18.64;66.39;96972.09;5139076;27;20188;-75
2023/08/28 03:27:22;;;;;;;5.77;1.67;;;;;;;18.55;66.76;96979.47;5144010;27;20188;-75
2023/08/28 03:29:47;;;;;;;2.90;1.73;;;;;;;18.53;66.78;96979.66;5127467;27;20670;-75
2023/08/28 03:32:13;;;;;;;2.67;1.90;;;;;;;18.54;66.78;96981.28;5121182;27;20482;-74
2023/08/28 03:34:38;;;;;;;3.60;1.77;;;;;;;18.52;66.99;96972.75;5152397;27;20215;-75
2023/08/28 03:37:04;;;;;;;3.70;1.90;;;;;;;18.54;66.56;96978.63;5108748;27;20295;-75
2023/08/28 03:39:29;;;;;;;5.63;1.83;;;;;;;18.50;66.67;96982.75;5113575;27;20219;-75
2023/08/28 03:41:55;;;;;;;4.27;1.97;;;;;;;18.55;66.57;96980.28;5108824;27;20176;-75
2023/08/28 03:44:20;;;;;;;3.90;1.83;;;;;;;18.54;66.89;96976.00;5126673;27;20195;-76
2023/08/28 03:46:46;;;;;;;3.33;1.80;;;;;;;18.53;66.70;96984.16;5128138;27;20653;-75
2023/08/28 03:49:11;;;;;;;3.80;1.73;;;;;;;18.56;66.77;96989.06;5120740;27;20200;-73
2023/08/28 03:51:36;;;;;;;2.93;1.70;;;;;;;18.58;66.63;96992.34;5133045;27;20181;-75
2023/08/28 03:54:02;;;;;;;3.27;1.73;;;;;;;18.57;66.33;96998.66;5133500;27;20199;-75
2023/08/28 03:56:29;;;;;;;2.27;1.60;;;;;;;18.60;66.27;96992.91;5115485;27;20185;-73
2023/08/28 03:58:55;;;;;;;3.73;1.90;;;;;;;18.63;66.31;97003.13;5124200;27;20210;-74
2023/08/28 04:01:21;;;;;;;5.10;1.80;;;;;;;18.60;65.98;97006.19;5123495;27;21033;-75
2023/08/28 04:03:46;;;;;;;3.87;1.60;;;;;;;18.61;66.10;97009.66;5126516;27;20433;-75
2023/08/28 04:06:12;;;;;;;4.40;1.60;;;;;;;18.57;66.00;97010.06;5124913;27;20192;-74
2023/08/28 04:08:37;;;;;;;5.83;2.00;;;;;;;18.52;65.88;97015.22;5127756;27;20197;-75
2023/08/28 04:11:03;;;;;;;3.13;1.50;;;;;;;18.51;65.98;97012.75;5125364;27;20208;-75
2023/08/28 04:13:28;;;;;;;6.40;1.93;;;;;;;18.50;66.18;97011.09;5131944;27;20199;-74
2023/08/28 04:15:54;;;;;;;2.57;1.63;;;;;;;18.48;66.12;97003.38;5143886;27;20337;-73
2023/08/28 04:18:19;;;;;;;1.60;1.50;;;;;;;18.47;66.06;97006.22;5137873;27;20237;-75
2023/08/28 04:20:45;;;;;;;3.00;1.60;;;;;;;18.42;66.42;96993.56;5135302;27;20180;-74
2023/08/28 04:23:10;;;;;;;5.90;1.77;;;;;;;18.43;66.31;96995.19;5135864;27;20732;-74
2023/08/28 04:25:35;;;;;;;4.83;2.17;;;;;;;18.39;66.27;96988.69;5130910;27;20219;-76
2023/08/28 04:28:01;;;;;;;5.63;1.90;;;;;;;18.43;66.14;96979.28;5146272;27;20230;-75
2023/08/28 04:30:26;;;;;;;5.13;1.87;;;;;;;18.45;66.03;96966.63;5141922;27;20278;-75
2023/08/28 04:32:52;;;;;;;3.33;1.77;;;;;;;18.44;66.08;96974.81;5136576;27;20210;-76
2023/08/28 04:35:17;;;;;;;2.03;1.73;;;;;;;18.42;65.87;96972.34;5140877;27;20254;-75
2023/08/28 04:37:43;;;;;;;8.80;1.80;;;;;;;18.43;65.74;96968.69;5120500;27;20283;-75
2023/08/28 04:40:09;;;;;;;2.07;1.97;;;;;;;18.43;65.84;96963.38;5131584;27;20267;-76
2023/08/28 04:42:34;;;;;;;2.33;2.13;;;;;;;18.40;66.00;96971.72;5131004;27;20649;-75
2023/08/28 04:45:00;;;;;;;5.40;1.80;;;;;;;18.36;65.80;96973.19;5132854;27;20483;-75
2023/08/28 04:47:25;;;;;;;6.57;2.27;;;;;;;18.36;66.09;96967.88;5130638;27;20176;-76
2023/08/28 04:49:51;;;;;;;6.17;1.90;;;;;;;18.36;66.10;96973.19;5131065;27;20187;-75
2023/08/28 04:52:16;;;;;;;2.17;1.80;;;;;;;18.37;65.83;96970.31;5100810;27;20250;-75
2023/08/28 04:54:42;;;;;;;5.00;2.00;;;;;;;18.23;66.07;96976.66;5122713;27;20216;-75
2023/08/28 04:57:07;;;;;;;1.90;1.80;;;;;;;18.30;66.28;96966.06;5137882;27;20214;-76
2023/08/28 04:59:33;;;;;;;5.63;2.40;;;;;;;18.32;66.18;96977.28;5140054;27;20290;-75
2023/08/28 05:01:58;;;;;;;5.53;1.53;;;;;;;18.34;66.26;96980.53;5126938;27;20659;-74
2023/08/28 05:04:24;;;;;;;14.10;2.47;;;;;;;18.36;66.09;96975.84;5130734;27;20225;-76
2023/08/28 05:06:49;;;;;;;4.13;2.10;;;;;;;18.33;66.24;96982.38;5136110;27;20172;-75
2023/08/28 05:09:15;;;;;;;4.27;1.97;;;;;;;18.32;66.20;96972.81;5118009;27;20207;-74
2023/08/28 05:11:40;;;;;;;3.43;1.77;;;;;;;18.34;66.19;96970.72;5148657;27;20191;-75
2023/08/28 05:14:05;;;;;;;2.20;1.93;;;;;;;18.34;66.01;96969.94;5130335;27;20237;-74
2023/08/28 05:16:32;;;;;;;6.27;2.60;;;;;;;18.36;65.88;96974.00;5130179;27;20620;-72
2023/08/28 05:18:57;;;;;;;3.00;2.10;;;;;;;18.36;65.80;96957.28;5122326;27;20796;-74
2023/08/28 05:21:23;;;;;;;4.93;2.10;;;;;;;18.39;65.45;96948.91;5138866;27;20513;-77
2023/08/28 05:23:48;;;;;;;3.63;2.53;;;;;;;18.43;65.69;96942.13;5134522;27;20636;-74
2023/08/28 05:26:13;;;;;;;3.60;2.30;;;;;;;18.44;65.57;96946.44;5135690;27;20214;-76
2023/08/28 05:28:40;;;;;;;6.10;2.50;;;;;;;18.40;65.86;96963.78;5109795;27;20217;-75
2023/08/28 05:31:05;;;;;;;4.90;2.20;;;;;;;18.42;65.97;96956.44;5121715;27;20176;-75
2023/08/28 05:33:31;;;;;;;3.97;2.50;;;;;;;18.44;65.93;96964.19;5130305;27;20451;-76
2023/08/28 05:35:56;;;;;;;5.70;2.03;;;;;;;18.44;66.12;96953.59;5117748;27;20181;-73
2023/08/28 05:38:22;;;;;;;2.67;2.33;;;;;;;18.46;66.17;96956.84;5125026;27;20895;-75
2023/08/28 05:40:47;;;;;;;3.97;2.00;;;;;;;18.45;65.91;96958.66;5125063;27;20183;-76
2023/08/28 05:43:13;;;;;;;9.60;2.20;;;;;;;18.44;65.80;96959.69;5130711;27;20237;-75
2023/08/28 05:45:38;;;;;;;5.10;2.10;;;;;;;18.48;65.88;96950.31;5121378;27;20181;-75
2023/08/28 05:48:04;;;;;;;3.77;2.50;;;;;;;18.46;66.02;96960.31;5123064;27;20279;-76
2023/08/28 05:50:30;;;;;;;3.27;2.10;;;;;;;18.47;66.39;96969.91;5139372;27;20207;-73
2023/08/28 05:52:55;;;;;;;3.30;2.43;;;;;;;18.45;66.19;96956.03;5130448;27;20212;-75
2023/08/28 05:55:22;;;;;;;4.27;2.30;;;;;;;18.45;66.17;96953.38;5130595;27;20180;-76
2023/08/28 05:57:47;;;;;;;3.30;2.43;;;;;;;18.48;66.18;96945.00;5133227;27;20208;-75
2023/08/28 06:00:14;;;;;;;2.60;2.23;;;;;;;18.47;65.98;96943.38;5142574;27;20446;-75
2023/08/28 06:02:42;;;;;;;9.10;2.60;;;;;;;18.50;66.12;96945.59;5128742;27;20188;-75
2023/08/28 06:05:08;;;;;;;4.77;2.60;;;;;;;18.51;66.20;96939.28;5138875;27;20426;-74
2023/08/28 06:07:34;;;;;;;7.77;2.80;;;;;;;18.52;66.48;96932.94;5129744;27;20415;-74
2023/08/28 06:09:59;;;;;;;7.00;2.27;;;;;;;18.54;66.64;96922.91;5138707;27;20429;-75
2023/08/28 06:12:25;;;;;;;4.20;2.67;;;;;;;18.55;66.73;96927.19;5138693;27;20421;-76
2023/08/28 06:14:51;;;;;;;5.10;2.37;;;;;;;18.55;66.72;96924.53;5124672;27;20179;-75
2023/08/28 06:17:16;;;;;;;2.93;2.33;;;;;;;18.57;66.64;96911.88;5131629;27;20236;-75
2023/08/28 06:19:41;;;;;;;6.40;2.70;;;;;;;18.62;66.61;96921.06;5118392;27;20184;-74
2023/08/28 06:22:07;;;;;;;6.90;2.43;;;;;;;18.65;65.98;96907.38;5121437;27;20259;-75
2023/08/28 06:24:32;;;;;;;4.80;2.47;;;;;;;18.68;65.72;96896.31;5119843;27;20226;-75
2023/08/28 06:26:58;;;;;;;5.00;2.90;;;;;;;18.71;65.77;96885.28;5150445;27;20677;-73
2023/08/28 06:29:24;;;;;;;4.13;2.50;;;;;;;18.71;65.65;96902.00;5142251;27;20218;-75
2023/08/28 06:31:50;;;;;;;2.90;2.60;;;;;;;18.72;65.87;96908.16;5139145;27;20207;-75
2023/08/28 06:34:15;;;;;;;5.63;2.90;;;;;;;18.75;65.95;96905.09;5138683;27;20234;-74
2023/08/28 06:36:41;;;;;;;5.40;3.13;;;;;;;18.77;65.93;96899.56;5122173;27;20926;-75
2023/08/28 06:39:07;;;;;;;3.87;2.80;;;;;;;18.78;66.36;96907.28;5138518;27;20309;-75
2023/08/28 06:41:32;;;;;;;5.10;3.17;;;;;;;18.80;66.10;96897.28;5138188;27;20211;-75
2023/08/28 06:43:58;;;;;;;9.40;3.50;;;;;;;18.80;66.09;96894.63;5116203;27;20179;-73
2023/08/28 06:46:23;;;;;;;6.40;3.70;;;;;;;18.81;66.18;96906.88;5142003;27;20803;-75
2023/08/28 06:48:51;;;;;;;4.60;3.50;;;;;;;18.82;66.25;96889.94;5134321;27;20200;-73
2023/08/28 06:51:17;;;;;;;6.10;3.47;;;;;;;18.82;66.33;96879.31;5111562;28;20176;-74
2023/08/28 06:53:43;;;;;;;4.73;4.27;;;;;;;18.82;66.20;96874.00;5111385;27;20986;-75
2023/08/28 06:56:08;;;;;;;5.37;4.00;;;;;;;18.82;66.25;96886.47;5122870;27;20228;-74
2023/08/28 06:58:33;;;;;;;3.93;3.60;;;;;;;18.85;66.02;96892.16;5129333;27;20292;-73
2023/08/28 07:00:59;;;;;;;4.17;3.77;;;;;;;18.87;66.03;96879.50;5133174;27;20259;-76
2023/08/28 07:03:24;;;;;;;5.00;3.83;;;;;;;18.90;65.91;96890.72;5113389;28;20206;-75
2023/08/28 07:05:50;;;;;;;5.07;3.80;;;;;;;18.92;66.09;96905.41;5127007;27;20267;-73
2023/08/28 07:08:15;;;;;;;6.50;4.27;;;;;;;18.96;65.69;96904.00;5129422;27;20196;-75
2023/08/28 07:10:42;;;;;;;4.20;3.90;;;;;;;18.98;65.58;96907.22;5132681;27;20177;-75
2023/08/28 07:13:08;;;;;;;7.00;4.53;;;;;;;18.99;65.38;96918.66;5118099;28;20187;-75
2023/08/28 07:15:33;;;;;;;7.13;4.50;;;;;;;18.99;65.33;96929.28;5137837;27;20416;-75
2023/08/28 07:17:59;;;;;;;6.33;4.80;;;;;;;18.99;65.23;96927.44;5139231;27;20572;-73
2023/08/28 07:20:24;;;;;;;5.37;4.73;;;;;;;18.97;65.01;96924.16;5129521;27;20229;-75
2023/08/28 07:22:51;;;;;;;8.90;4.67;;;;;;;18.96;65.02;96917.25;5110834;27;20194;-75
2023/08/28 07:25:21;;;;;;;5.37;4.77;;;;;;;18.96;65.04;96919.91;5101985;28;20259;-75
2023/08/28 07:27:47;;;;;;;9.00;4.63;;;;;;;18.96;64.70;96911.94;5120124;27;20438;-75
2023/08/28 07:30:12;;;;;;;4.73;3.87;;;;;;;19.00;64.63;96904.38;5129176;27;20424;-74
2023/08/28 07:32:37;;;;;;;5.80;4.37;;;;;;;18.97;64.17;96899.47;5118835;27;20192;-75
2023/08/28 07:35:05;;;;;;;4.80;3.90;;;;;;;18.96;64.36;96895.19;5106747;28;20203;-75
2023/08/28 07:37:33;;;;;;;5.50;3.90;;;;;;;18.98;64.64;96895.81;5104828;28;20204;-75
2023/08/28 07:39:59;;;;;;;4.73;4.23;;;;;;;19.02;64.50;96881.06;5125380;27;20425;-74
2023/08/28 07:42:24;;;;;;;4.87;4.27;;;;;;;18.97;64.15;96876.38;5143821;27;20418;-74
2023/08/28 07:44:50;;;;;;;5.00;4.20;;;;;;;18.99;64.52;96881.50;5104375;27;20192;-73
2023/08/28 07:47:16;;;;;;;6.63;3.97;;;;;;;19.02;64.45;96891.69;5108133;27;20184;-73
2023/08/28 07:49:42;;;;;;;3.87;3.10;;;;;;;19.07;64.44;96894.50;5111102;27;20845;-75
2023/08/28 07:52:07;;;;;;;5.80;3.67;;;;;;;19.13;64.15;96909.59;5097352;27;20180;-76
2023/08/28 07:54:33;;;;;;;3.67;3.37;;;;;;;19.22;64.29;96919.97;5114244;27;20514;-75
2023/08/28 07:56:58;;;;;;;4.07;3.33;;;;;;;19.26;64.06;96921.16;5143847;27;20206;-73
2023/08/28 07:59:24;;;;;;;5.93;3.33;;;;;;;19.28;63.93;96921.78;5146423;27;20200;-75
2023/08/28 08:01:49;;;;;;;3.30;3.10;;;;;;;19.30;63.33;96935.63;5142504;27;20188;-74
2023/08/28 08:04:15;;;;;;;4.10;3.10;;;;;;;19.33;62.76;96935.19;5105165;27;20659;-75
2023/08/28 08:06:40;;;;;;;3.93;3.53;;;;;;;19.32;62.42;96933.56;5133130;27;20222;-74
2023/08/28 08:09:06;;;;;;;3.90;3.60;;;;;;;19.34;62.59;96934.19;5116225;27;20200;-75
2023/08/28 08:11:32;;;;;;;4.03;3.23;;;;;;;19.36;62.72;96923.31;5125299;27;20177;-75
2023/08/28 08:13:58;;;;;;;5.70;3.40;;;;;;;19.37;62.72;96935.59;5098530;27;20195;-75
2023/08/28 08:16:24;;;;;;;6.50;3.60;;;;;;;19.39;62.90;96945.00;5126016;27;20176;-75
2023/08/28 08:18:49;;;;;;;5.17;3.73;;;;;;;19.44;63.31;96947.78;5135902;27;20216;-74
2023/08/28 08:21:15;;;;;;;4.10;3.43;;;;;;;19.48;63.05;96950.81;5133173;27;20941;-74
2023/08/28 08:23:41;;;;;;;4.93;3.30;;;;;;;19.48;62.70;96962.28;5113757;27;20176;-76
2023/08/28 08:26:07;;;;;;;3.70;3.40;;;;;;;19.52;62.25;96961.88;5149559;27;20421;-74
2023/08/28 08:28:32;;;;;;;6.13;3.73;;;;;;;19.55;62.72;96954.28;5121859;27;20453;-74
2023/08/28 08:30:58;;;;;;;5.03;3.50;;;;;;;19.61;62.43;96963.22;5115845;27;20211;-74
2023/08/28 08:33:23;;;;;;;5.70;3.30;;;;;;;19.63;62.37;96955.84;5118501;27;20184;-75
2023/08/28 08:35:49;;;;;;;3.00;2.80;;;;;;;19.62;61.63;96954.22;5118011;27;20176;-74
2023/08/28 08:38:14;;;;;;;4.03;3.10;;;;;;;19.58;60.96;96945.88;5125725;27;20200;-74
2023/08/28 08:40:40;;;;;;;4.93;3.00;;;;;;;19.57;60.56;96946.06;5109466;27;20637;-74
2023/08/28 08:43:06;;;;;;;3.83;3.20;;;;;;;19.55;60.60;96948.94;5136998;27;20191;-75
2023/08/28 08:45:35;;;;;;;3.60;3.10;;;;;;;19.56;59.72;96947.94;5137473;27;20180;-75
2023/08/28 08:48:02;;;;;;;3.67;2.70;;;;;;;19.54;59.11;96962.44;5102399;27;20742;-75
2023/08/28 08:50:28;;;;;;;2.70;2.50;;;;;;;19.57;59.08;96962.00;5140299;27;20501;-75
2023/08/28 08:52:56;;;;;;;2.83;2.23;;;;;;;19.56;59.63;96950.59;5113089;27;20455;-75
2023/08/28 08:55:24;;;;;;;3.37;2.40;;;;;;;19.54;59.35;96955.28;5121650;27;20846;-75
2023/08/28 08:57:52;;;;;;;3.00;2.70;;;;;;;19.55;59.51;96950.78;5092969;27;20494;-75
2023/08/28 09:00:18;;;;;;;3.77;2.30;;;;;;;19.55;59.82;96956.94;5113022;27;20415;-75
2023/08/28 09:02:44;;;;;;;2.63;2.43;;;;;;;19.57;59.91;96962.00;5117319;27;20422;-76
2023/08/28 09:05:10;;;;;;;2.70;2.50;;;;;;;19.62;60.15;96964.84;5127583;27;20436;-74
2023/08/28 09:07:37;;;;;;;3.30;2.00;;;;;;;19.58;58.49;96959.16;5117779;27;20172;-74
2023/08/28 09:10:03;;;;;;;2.70;2.13;;;;;;;19.62;57.87;96957.69;5130889;27;20841;-73
2023/08/28 09:12:29;;;;;;;3.97;2.27;;;;;;;19.59;57.17;96960.78;5135663;27;20421;-73
2023/08/28 09:14:54;;;;;;;1.90;1.80;;;;;;;19.57;57.11;96956.69;5122232;27;20414;-73
2023/08/28 09:17:21;;;;;;;2.17;1.97;;;;;;;19.58;56.98;96953.00;5107926;28;20193;-74
2023/08/28 09:19:47;;;;;;;2.70;1.60;;;;;;;19.55;56.63;96948.94;5127175;27;20191;-73
2023/08/28 09:22:13;;;;;;;3.03;1.90;;;;;;;19.58;56.37;96943.22;5139706;27;20410;-74
2023/08/28 09:24:38;;;;;;;1.83;1.60;;;;;;;19.61;56.29;96937.44;5112525;27;20860;-74
2023/08/28 09:27:04;;;;;;;2.13;1.60;;;;;;;19.64;55.74;96937.00;5079852;27;20602;-74
2023/08/28 09:29:29;;;;;;;6.37;1.90;;;;;;;19.68;55.53;96932.06;5118465;27;20789;-74
2023/08/28 09:32:04;;;;;;;12.40;3.80;;;;;;;19.69;55.57;96936.34;5139050;27;20671;-74
2023/08/28 09:34:40;;;;;;;2.00;1.53;;;;;;;19.73;55.98;96934.06;5113868;27;20172;-73
2023/08/28 09:37:10;;;;;;;4.10;2.23;;;;;;;19.77;55.69;96919.31;5131493;27;20499;-74
2023/08/28 09:39:40;;;;;;;3.60;1.93;;;;;;;19.85;55.74;96916.38;5122109;27;20452;-74
2023/08/28 09:42:07;;;;;;;2.90;1.70;;;;;;;19.95;56.17;96919.41;5116531;27;20421;-74
2023/08/28 09:44:36;;;;;;;1.70;1.60;;;;;;;20.04;55.92;96897.84;5106247;28;20503;-74
2023/08/28 09:47:02;;;;;;;4.60;2.00;;;;;;;20.08;55.90;96893.72;5107941;27;20425;-75
2023/08/28 09:49:28;;;;;;;3.77;1.80;;;;;;;20.14;55.62;96884.03;5123544;27;20438;-75
2023/08/28 09:51:57;;;;;;;2.10;1.90;;;;;;;20.17;55.26;96881.75;5111385;27;20188;-75
2023/08/28 09:54:22;;;;;;;2.80;1.67;;;;;;;20.25;54.53;96873.44;5143436;27;20451;-73
2023/08/28 09:56:48;;;;;;;3.20;1.90;;;;;;;20.33;54.00;96867.03;5115638;27;20449;-75
2023/08/28 09:59:16;;;;;;;1.93;1.70;;;;;;;20.40;54.37;96881.06;5114449;27;20199;-74
2023/08/28 10:01:42;;;;;;;2.20;1.60;;;;;;;20.48;53.98;96881.78;5146762;27;20183;-75
2023/08/28 10:04:09;;;;;;;4.90;1.73;;;;;;;20.58;53.43;96871.41;5143448;27;20421;-74
2023/08/28 10:06:38;;;;;;;5.70;1.53;;;;;;;20.70;53.05;96874.94;5111765;27;20176;-74
2023/08/28 10:09:05;;;;;;;5.10;1.93;;;;;;;20.81;53.07;96880.56;5119415;27;20815;-74
2023/08/28 10:11:36;;;;;;;2.03;1.83;;;;;;;20.89;52.32;96872.28;5112162;27;20420;-75
2023/08/28 10:14:03;;;;;;;2.17;1.57;;;;;;;20.97;52.33;96868.47;5119699;27;20477;-75
2023/08/28 10:16:30;;;;;;;2.30;1.53;;;;;;;21.07;51.79;96866.06;5090984;28;20419;-75
2023/08/28 10:19:06;;;;;;;1.50;1.40;;;;;;;21.20;51.15;96872.25;5095153;27;20464;-74
2023/08/28 10:21:31;;;;;;;5.50;1.70;;;;;;;21.33;51.24;96882.69;5129908;27;20414;-75
2023/08/28 10:23:57;;;;;;;2.07;1.83;;;;;;;21.40;50.67;96880.72;5129589;27;20756;-75
2023/08/28 10:26:23;;;;;;;3.20;1.67;;;;;;;21.45;50.16;96882.69;5129798;27;20168;-74
2023/08/28 10:28:50;;;;;;;5.50;1.83;;;;;;;21.51;50.15;96886.28;5130412;27;20212;-75
2023/08/28 10:31:18;;;;;;;2.20;1.70;;;;;;;21.57;50.21;96869.41;5132269;27;20208;-74
2023/08/28 10:33:45;;;;;;;2.53;1.50;;;;;;;21.59;49.68;96869.97;5127670;27;20470;-73
2023/08/28 10:36:10;;;;;;;1.50;1.23;;;;;;;21.57;49.79;96859.53;5143903;27;21015;-74
2023/08/28 10:38:36;;;;;;;3.37;1.50;;;;;;;21.65;49.66;96862.94;5129686;27;20536;-74
2023/08/28 10:41:02;;;;;;;1.97;1.57;;;;;;;21.63;48.81;96866.66;5091419;27;20200;-76
2023/08/28 10:43:29;;;;;;;1.83;1.20;;;;;;;21.70;49.11;96855.03;5116563;28;20772;-74
2023/08/28 10:45:56;;;;;;;2.23;2.00;;;;;;;21.80;49.51;96849.94;5087471;28;20423;-74
2023/08/28 10:48:22;;;;;;;3.43;1.30;;;;;;;21.86;49.38;96850.88;5103443;28;20480;-75
2023/08/28 10:50:47;;;;;;;2.00;1.90;;;;;;;21.90;49.45;96852.84;5137236;27;20855;-73
2023/08/28 10:53:16;;;;;;;3.17;1.63;;;;;;;21.99;49.41;96837.25;5139111;27;20173;-74
2023/08/28 10:55:57;;;;;;;3.03;1.73;;;;;;;22.08;49.46;96833.22;5109083;27;20668;-75
2023/08/28 10:58:24;;;;;;;2.80;1.37;;;;;;;22.11;49.44;96831.91;5082156;28;20469;-75
2023/08/28 11:01:15;;;;;;;1.83;1.70;;;;;;;22.09;48.85;96826.00;5089218;27;20424;-74
2023/08/28 11:03:58;;;;;;;1.70;1.60;;;;;;;21.94;47.29;96826.50;5124994;27;20430;-74
2023/08/28 11:06:34;;;;;;;2.20;1.87;;;;;;;21.93;47.63;96822.22;5111019;28;20433;-74
2023/08/28 11:09:28;;;;;;;2.80;1.50;;;;;;;21.89;48.57;96827.22;5129280;27;20531;-75
2023/08/28 11:12:03;;;;;;;5.00;1.43;;;;;;;21.83;48.84;96830.78;5140378;27;20441;-75
2023/08/28 11:14:39;;;;;;;1.80;1.40;;;;;;;21.68;47.50;96825.94;5111165;27;20448;-74
2023/08/28 11:17:11;;;;;;;3.73;1.37;;;;;;;21.63;47.82;96829.31;5115076;27;20633;-74
2023/08/28 11:19:55;;;;;;;2.80;1.20;;;;;;;21.55;47.77;96829.63;5114823;27;20446;-74
2023/08/28 11:22:36;;;;;;;1.80;1.20;;;;;;;21.52;48.26;96831.94;5100770;27;20416;-74
2023/08/28 11:25:07;;;;;;;1.27;1.17;;;;;;;21.51;48.13;96820.47;5146170;27;20420;-75
2023/08/28 11:27:54;;;;;;;2.40;1.30;;;;;;;21.43;48.26;96832.28;5102696;28;20817;-75
2023/08/28 11:30:21;;;;;;;2.40;1.57;;;;;;;21.42;48.63;96829.88;5114996;27;21002;-74
2023/08/28 11:32:51;;;;;;;1.70;1.60;;;;;;;21.37;49.07;96829.75;5119128;27;20409;-75